sensor_id;sensor_type;location;lat;lon;timestamp;pressure;altitude;pressure_sealevel;temperature;humidity
31082;BME280;17737;52.586;13.284;2023-04-26T00:00:00;100870.88;;;4.49;70.70
31082;BME280;17737;52.586;13.284;2023-04-26T00:02:28;100875.47;;;4.47;71.03
31082;BME280;17737;52.586;13.284;2023-04-26T00:04:57;100875.22;;;4.50;71.32
31082;BME280;17737;52.586;13.284;2023-04-26T00:07:27;100869.16;;;4.48;71.60
31082;BME280;17737;52.586;13.284;2023-04-26T00:09:56;100873.44;;;4.40;71.64
31082;BME280;17737;52.586;13.284;2023-04-26T00:12:25;100874.19;;;4.31;72.17
31082;BME280;17737;52.586;13.284;2023-04-26T00:14:53;100876.75;;;4.32;72.30
31082;BME280;17737;52.586;13.284;2023-04-26T00:17:22;100875.03;;;4.31;72.14
31082;BME280;17737;52.586;13.284;2023-04-26T00:19:50;100871.16;;;4.24;72.03
31082;BME280;17737;52.586;13.284;2023-04-26T00:22:19;100872.28;;;4.22;72.82
31082;BME280;17737;52.586;13.284;2023-04-26T00:24:47;100869.50;;;4.12;72.58
31082;BME280;17737;52.586;13.284;2023-04-26T00:27:15;100875.81;;;4.11;73.04
31082;BME280;17737;52.586;13.284;2023-04-26T00:29:44;100877.88;;;4.08;73.36
31082;BME280;17737;52.586;13.284;2023-04-26T00:32:12;100875.34;;;4.06;73.30
31082;BME280;17737;52.586;13.284;2023-04-26T00:34:40;100877.03;;;4.07;73.74
31082;BME280;17737;52.586;13.284;2023-04-26T00:37:08;100880.53;;;4.08;73.67
31082;BME280;17737;52.586;13.284;2023-04-26T00:39:36;100881.16;;;4.00;73.78
31082;BME280;17737;52.586;13.284;2023-04-26T00:42:04;100873.28;;;3.99;73.72
31082;BME280;17737;52.586;13.284;2023-04-26T00:44:32;100877.19;;;3.95;74.04
31082;BME280;17737;52.586;13.284;2023-04-26T00:47:01;100876.59;;;3.91;74.06
31082;BME280;17737;52.586;13.284;2023-04-26T00:49:29;100875.72;;;3.91;74.35
31082;BME280;17737;52.586;13.284;2023-04-26T00:51:57;100878.75;;;3.86;74.54
31082;BME280;17737;52.586;13.284;2023-04-26T00:54:26;100882.72;;;3.92;74.35
31082;BME280;17737;52.586;13.284;2023-04-26T00:56:55;100881.56;;;3.85;74.62
31082;BME280;17737;52.586;13.284;2023-04-26T00:59:25;100886.03;;;3.84;75.01
31082;BME280;17737;52.586;13.284;2023-04-26T01:01:53;100871.13;;;3.82;74.40
31082;BME280;17737;52.586;13.284;2023-04-26T01:04:24;100885.16;;;3.84;74.71
31082;BME280;17737;52.586;13.284;2023-04-26T01:06:53;100883.22;;;3.75;74.79
31082;BME280;17737;52.586;13.284;2023-04-26T01:09:21;100886.75;;;3.75;74.99
31082;BME280;17737;52.586;13.284;2023-04-26T01:11:51;100892.22;;;3.74;75.32
31082;BME280;17737;52.586;13.284;2023-04-26T01:14:22;100889.78;;;3.71;75.29
31082;BME280;17737;52.586;13.284;2023-04-26T01:16:51;100893.31;;;3.71;75.29
31082;BME280;17737;52.586;13.284;2023-04-26T01:19:19;100892.22;;;3.62;75.58
31082;BME280;17737;52.586;13.284;2023-04-26T01:21:50;100897.56;;;3.62;75.93
31082;BME280;17737;52.586;13.284;2023-04-26T01:24:19;100891.25;;;3.63;75.46
31082;BME280;17737;52.586;13.284;2023-04-26T01:26:47;100893.16;;;3.61;75.43
31082;BME280;17737;52.586;13.284;2023-04-26T01:29:18;100900.22;;;3.62;75.53
31082;BME280;17737;52.586;13.284;2023-04-26T01:31:47;100901.91;;;3.63;75.79
31082;BME280;17737;52.586;13.284;2023-04-26T01:34:15;100899.81;;;3.56;75.84
31082;BME280;17737;52.586;13.284;2023-04-26T01:36:43;100899.13;;;3.54;75.96
31082;BME280;17737;52.586;13.284;2023-04-26T01:39:11;100899.47;;;3.49;76.01
31082;BME280;17737;52.586;13.284;2023-04-26T01:41:40;100904.66;;;3.51;76.38
31082;BME280;17737;52.586;13.284;2023-04-26T01:44:08;100908.06;;;3.53;76.48
31082;BME280;17737;52.586;13.284;2023-04-26T01:46:36;100905.53;;;3.51;76.25
31082;BME280;17737;52.586;13.284;2023-04-26T01:49:04;100907.81;;;3.56;76.76
31082;BME280;17737;52.586;13.284;2023-04-26T01:51:32;100910.84;;;3.51;76.34
31082;BME280;17737;52.586;13.284;2023-04-26T01:54:00;100908.75;;;3.44;76.60
31082;BME280;17737;52.586;13.284;2023-04-26T01:56:28;100909.75;;;3.43;76.90
31082;BME280;17737;52.586;13.284;2023-04-26T01:58:58;100917.38;;;3.47;76.99
31082;BME280;17737;52.586;13.284;2023-04-26T02:01:26;100910.34;;;3.46;76.96
31082;BME280;17737;52.586;13.284;2023-04-26T02:03:54;100917.00;;;3.41;77.28
31082;BME280;17737;52.586;13.284;2023-04-26T02:06:22;100906.59;;;3.38;77.06
31082;BME280;17737;52.586;13.284;2023-04-26T02:08:49;100908.41;;;3.37;77.46
31082;BME280;17737;52.586;13.284;2023-04-26T02:11:18;100915.16;;;3.30;77.51
31082;BME280;17737;52.586;13.284;2023-04-26T02:13:46;100918.44;;;3.34;77.48
31082;BME280;17737;52.586;13.284;2023-04-26T02:16:15;100913.34;;;3.31;77.65
31082;BME280;17737;52.586;13.284;2023-04-26T02:18:44;100916.75;;;3.33;77.72
31082;BME280;17737;52.586;13.284;2023-04-26T02:21:12;100915.28;;;3.29;77.65
31082;BME280;17737;52.586;13.284;2023-04-26T02:23:43;100924.00;;;3.31;77.91
31082;BME280;17737;52.586;13.284;2023-04-26T02:26:12;100914.47;;;3.28;78.10
31082;BME280;17737;52.586;13.284;2023-04-26T02:28:40;100912.97;;;3.24;78.09
31082;BME280;17737;52.586;13.284;2023-04-26T02:31:08;100902.34;;;3.24;78.45
31082;BME280;17737;52.586;13.284;2023-04-26T02:33:38;100906.81;;;3.24;78.27
31082;BME280;17737;52.586;13.284;2023-04-26T02:36:06;100917.31;;;3.25;78.24
31082;BME280;17737;52.586;13.284;2023-04-26T02:38:35;100907.66;;;3.24;78.29
31082;BME280;17737;52.586;13.284;2023-04-26T02:41:03;100914.53;;;3.16;78.36
31082;BME280;17737;52.586;13.284;2023-04-26T02:43:31;100917.06;;;3.17;78.57
31082;BME280;17737;52.586;13.284;2023-04-26T02:45:59;100916.72;;;3.22;78.76
31082;BME280;17737;52.586;13.284;2023-04-26T02:48:27;100903.31;;;3.23;78.94
31082;BME280;17737;52.586;13.284;2023-04-26T02:50:57;100920.72;;;3.16;79.03
31082;BME280;17737;52.586;13.284;2023-04-26T02:53:25;100916.22;;;3.17;79.51
31082;BME280;17737;52.586;13.284;2023-04-26T02:55:52;100906.19;;;3.20;79.61
31082;BME280;17737;52.586;13.284;2023-04-26T02:58:20;100912.38;;;3.21;79.59
31082;BME280;17737;52.586;13.284;2023-04-26T03:00:48;100920.94;;;3.13;79.71
31082;BME280;17737;52.586;13.284;2023-04-26T03:03:16;100913.41;;;3.07;80.11
31082;BME280;17737;52.586;13.284;2023-04-26T03:05:45;100909.53;;;3.00;80.06
31082;BME280;17737;52.586;13.284;2023-04-26T03:08:14;100912.44;;;3.08;80.06
31082;BME280;17737;52.586;13.284;2023-04-26T03:10:43;100911.00;;;3.04;79.71
31082;BME280;17737;52.586;13.284;2023-04-26T03:13:11;100917.28;;;3.03;80.10
31082;BME280;17737;52.586;13.284;2023-04-26T03:15:43;100917.38;;;3.02;80.19
31082;BME280;17737;52.586;13.284;2023-04-26T03:18:12;100909.66;;;2.99;80.10
31082;BME280;17737;52.586;13.284;2023-04-26T03:20:40;100919.44;;;2.98;80.60
31082;BME280;17737;52.586;13.284;2023-04-26T03:23:09;100915.53;;;2.91;80.65
31082;BME280;17737;52.586;13.284;2023-04-26T03:25:38;100904.81;;;2.93;80.80
31082;BME280;17737;52.586;13.284;2023-04-26T03:28:06;100914.59;;;2.92;81.30
31082;BME280;17737;52.586;13.284;2023-04-26T03:30:34;100915.78;;;2.88;80.62
31082;BME280;17737;52.586;13.284;2023-04-26T03:33:02;100918.31;;;2.90;81.17
31082;BME280;17737;52.586;13.284;2023-04-26T03:35:30;100925.72;;;2.97;81.41
31082;BME280;17737;52.586;13.284;2023-04-26T03:37:58;100920.66;;;2.94;81.37
31082;BME280;17737;52.586;13.284;2023-04-26T03:40:26;100924.72;;;2.87;81.70
31082;BME280;17737;52.586;13.284;2023-04-26T03:42:55;100923.50;;;2.91;81.68
31082;BME280;17737;52.586;13.284;2023-04-26T03:45:23;100929.56;;;2.93;80.91
31082;BME280;17737;52.586;13.284;2023-04-26T03:47:52;100928.56;;;2.83;81.25
31082;BME280;17737;52.586;13.284;2023-04-26T03:50:20;100935.25;;;2.89;81.76
31082;BME280;17737;52.586;13.284;2023-04-26T03:52:48;100932.31;;;2.81;81.76
31082;BME280;17737;52.586;13.284;2023-04-26T03:55:16;100931.00;;;2.86;81.34
31082;BME280;17737;52.586;13.284;2023-04-26T03:57:45;100922.50;;;2.81;81.69
31082;BME280;17737;52.586;13.284;2023-04-26T04:00:14;100928.56;;;2.83;81.40
31082;BME280;17737;52.586;13.284;2023-04-26T04:02:43;100938.72;;;2.78;81.59
31082;BME280;17737;52.586;13.284;2023-04-26T04:05:11;100938.78;;;2.89;81.07
31082;BME280;17737;52.586;13.284;2023-04-26T04:07:39;100946.63;;;2.91;80.75
31082;BME280;17737;52.586;13.284;2023-04-26T04:10:07;100948.25;;;3.04;80.94
31082;BME280;17737;52.586;13.284;2023-04-26T04:12:37;100944.19;;;3.11;80.29
31082;BME280;17737;52.586;13.284;2023-04-26T04:15:05;100941.41;;;3.13;80.21
31082;BME280;17737;52.586;13.284;2023-04-26T04:17:36;100948.72;;;3.33;79.43
31082;BME280;17737;52.586;13.284;2023-04-26T04:20:05;100941.78;;;3.30;79.48
31082;BME280;17737;52.586;13.284;2023-04-26T04:22:34;100945.09;;;3.56;78.76
31082;BME280;17737;52.586;13.284;2023-04-26T04:25:05;100945.00;;;3.57;77.98
31082;BME280;17737;52.586;13.284;2023-04-26T04:27:35;100932.41;;;3.48;77.67
31082;BME280;17737;52.586;13.284;2023-04-26T04:30:04;100951.03;;;3.59;78.01
31082;BME280;17737;52.586;13.284;2023-04-26T04:32:35;100952.28;;;3.89;76.92
31082;BME280;17737;52.586;13.284;2023-04-26T04:35:05;100950.22;;;4.14;75.90
31082;BME280;17737;52.586;13.284;2023-04-26T04:37:34;100954.09;;;4.32;75.08
31082;BME280;17737;52.586;13.284;2023-04-26T04:40:02;100959.81;;;4.17;74.99
31082;BME280;17737;52.586;13.284;2023-04-26T04:42:31;100957.84;;;4.41;74.46
31082;BME280;17737;52.586;13.284;2023-04-26T04:45:00;100954.75;;;4.56;74.39
31082;BME280;17737;52.586;13.284;2023-04-26T04:47:28;100952.94;;;4.57;73.74
31082;BME280;17737;52.586;13.284;2023-04-26T04:49:58;100957.34;;;4.47;73.88
31082;BME280;17737;52.586;13.284;2023-04-26T04:52:25;100969.00;;;4.46;74.26
31082;BME280;17737;52.586;13.284;2023-04-26T04:54:53;100962.94;;;4.11;75.50
31082;BME280;17737;52.586;13.284;2023-04-26T04:57:22;100967.69;;;3.74;76.45
31082;BME280;17737;52.586;13.284;2023-04-26T04:59:50;100977.22;;;3.65;77.28
31082;BME280;17737;52.586;13.284;2023-04-26T05:02:18;100991.25;;;3.56;77.10
31082;BME280;17737;52.586;13.284;2023-04-26T05:04:47;100969.47;;;3.62;77.59
31082;BME280;17737;52.586;13.284;2023-04-26T05:07:16;100977.06;;;3.56;77.56
31082;BME280;17737;52.586;13.284;2023-04-26T05:09:44;100983.91;;;3.71;77.78
31082;BME280;17737;52.586;13.284;2023-04-26T05:12:12;100981.69;;;3.65;77.48
31082;BME280;17737;52.586;13.284;2023-04-26T05:14:40;100979.53;;;3.70;77.74
31082;BME280;17737;52.586;13.284;2023-04-26T05:17:08;100985.97;;;3.67;77.60
31082;BME280;17737;52.586;13.284;2023-04-26T05:19:36;100980.75;;;3.77;76.84
31082;BME280;17737;52.586;13.284;2023-04-26T05:22:04;100989.25;;;3.82;76.97
31082;BME280;17737;52.586;13.284;2023-04-26T05:24:33;100992.03;;;3.81;76.79
31082;BME280;17737;52.586;13.284;2023-04-26T05:27:01;100991.03;;;3.82;76.59
31082;BME280;17737;52.586;13.284;2023-04-26T05:29:30;100996.66;;;3.90;76.26
31082;BME280;17737;52.586;13.284;2023-04-26T05:31:58;101004.03;;;3.97;75.99
31082;BME280;17737;52.586;13.284;2023-04-26T05:34:26;101000.41;;;4.09;75.72
31082;BME280;17737;52.586;13.284;2023-04-26T05:36:54;100988.66;;;4.12;75.55
31082;BME280;17737;52.586;13.284;2023-04-26T05:39:22;101003.19;;;3.97;75.73
31082;BME280;17737;52.586;13.284;2023-04-26T05:41:51;101006.69;;;3.97;75.90
31082;BME280;17737;52.586;13.284;2023-04-26T05:44:20;100998.81;;;4.18;75.46
31082;BME280;17737;52.586;13.284;2023-04-26T05:46:48;101009.00;;;4.35;75.25
31082;BME280;17737;52.586;13.284;2023-04-26T05:49:16;101011.44;;;4.27;75.26
31082;BME280;17737;52.586;13.284;2023-04-26T05:51:43;101009.25;;;4.21;74.33
31082;BME280;17737;52.586;13.284;2023-04-26T05:54:11;101009.25;;;4.32;74.53
31082;BME280;17737;52.586;13.284;2023-04-26T05:56:39;101011.41;;;4.49;74.59
31082;BME280;17737;52.586;13.284;2023-04-26T05:59:09;101012.84;;;4.53;73.84
31082;BME280;17737;52.586;13.284;2023-04-26T06:01:39;101017.19;;;4.65;73.81
31082;BME280;17737;52.586;13.284;2023-04-26T06:04:07;101014.28;;;4.79;73.25
31082;BME280;17737;52.586;13.284;2023-04-26T06:06:35;101024.56;;;4.83;73.38
31082;BME280;17737;52.586;13.284;2023-04-26T06:09:03;101022.66;;;4.74;72.57
31082;BME280;17737;52.586;13.284;2023-04-26T06:11:32;101017.31;;;4.74;72.75
31082;BME280;17737;52.586;13.284;2023-04-26T06:13:59;101027.56;;;5.01;72.76
31082;BME280;17737;52.586;13.284;2023-04-26T06:16:29;101028.09;;;4.84;72.72
31082;BME280;17737;52.586;13.284;2023-04-26T06:18:57;101027.97;;;4.85;72.68
31082;BME280;17737;52.586;13.284;2023-04-26T06:21:25;101036.91;;;4.96;72.94
31082;BME280;17737;52.586;13.284;2023-04-26T06:23:53;101036.09;;;4.84;72.38
31082;BME280;17737;52.586;13.284;2023-04-26T06:26:21;101019.47;;;4.92;72.18
31082;BME280;17737;52.586;13.284;2023-04-26T06:28:49;101030.56;;;5.08;71.28
31082;BME280;17737;52.586;13.284;2023-04-26T06:31:17;101031.97;;;5.23;70.62
31082;BME280;17737;52.586;13.284;2023-04-26T06:33:48;101027.91;;;5.39;70.93
31082;BME280;17737;52.586;13.284;2023-04-26T06:36:17;101035.13;;;5.48;71.02
31082;BME280;17737;52.586;13.284;2023-04-26T06:38:45;101035.00;;;5.70;69.64
31082;BME280;17737;52.586;13.284;2023-04-26T06:41:13;101046.19;;;5.75;69.17
31082;BME280;17737;52.586;13.284;2023-04-26T06:43:40;101033.72;;;5.65;69.16
31082;BME280;17737;52.586;13.284;2023-04-26T06:46:08;101034.19;;;5.70;68.63
31082;BME280;17737;52.586;13.284;2023-04-26T06:48:36;101037.38;;;5.64;69.36
31082;BME280;17737;52.586;13.284;2023-04-26T06:51:06;101044.34;;;5.76;68.52
31082;BME280;17737;52.586;13.284;2023-04-26T06:53:35;101036.19;;;5.77;69.25
31082;BME280;17737;52.586;13.284;2023-04-26T06:56:04;101039.81;;;5.67;69.31
31082;BME280;17737;52.586;13.284;2023-04-26T06:58:32;101047.47;;;5.60;69.58
31082;BME280;17737;52.586;13.284;2023-04-26T07:01:00;101038.38;;;5.83;69.69
31082;BME280;17737;52.586;13.284;2023-04-26T07:03:29;101043.06;;;5.91;68.98
31082;BME280;17737;52.586;13.284;2023-04-26T07:05:57;101036.66;;;6.03;68.19
31082;BME280;17737;52.586;13.284;2023-04-26T07:08:27;101042.09;;;6.13;68.31
31082;BME280;17737;52.586;13.284;2023-04-26T07:10:55;101042.25;;;6.21;67.83
31082;BME280;17737;52.586;13.284;2023-04-26T07:13:23;101038.94;;;6.28;67.72
31082;BME280;17737;52.586;13.284;2023-04-26T07:15:51;101038.50;;;6.23;67.14
31082;BME280;17737;52.586;13.284;2023-04-26T07:18:19;101044.44;;;6.36;66.24
31082;BME280;17737;52.586;13.284;2023-04-26T07:20:48;101053.03;;;6.70;66.42
31082;BME280;17737;52.586;13.284;2023-04-26T07:23:16;101045.34;;;6.56;65.64
31082;BME280;17737;52.586;13.284;2023-04-26T07:25:45;101052.22;;;6.49;65.23
31082;BME280;17737;52.586;13.284;2023-04-26T07:28:15;101048.88;;;6.96;64.44
31082;BME280;17737;52.586;13.284;2023-04-26T07:30:43;101050.50;;;6.68;63.92
31082;BME280;17737;52.586;13.284;2023-04-26T07:33:13;101054.28;;;7.15;64.25
31082;BME280;17737;52.586;13.284;2023-04-26T07:35:42;101059.41;;;6.88;63.91
31082;BME280;17737;52.586;13.284;2023-04-26T07:38:10;101055.06;;;6.96;64.03
31082;BME280;17737;52.586;13.284;2023-04-26T07:40:46;101054.56;;;7.31;62.79
31082;BME280;17737;52.586;13.284;2023-04-26T07:43:14;101052.03;;;7.58;61.88
31082;BME280;17737;52.586;13.284;2023-04-26T07:45:42;101048.22;;;7.51;60.74
31082;BME280;17737;52.586;13.284;2023-04-26T07:48:11;101052.84;;;7.68;60.71
31082;BME280;17737;52.586;13.284;2023-04-26T07:50:39;101059.09;;;7.40;60.23
31082;BME280;17737;52.586;13.284;2023-04-26T07:53:07;101065.56;;;7.66;60.15
31082;BME280;17737;52.586;13.284;2023-04-26T07:55:35;101056.84;;;7.45;59.98
31082;BME280;17737;52.586;13.284;2023-04-26T07:58:05;101065.28;;;7.31;60.01
31082;BME280;17737;52.586;13.284;2023-04-26T08:00:33;101054.84;;;7.38;60.13
31082;BME280;17737;52.586;13.284;2023-04-26T08:03:04;101064.72;;;7.27;60.56
31082;BME280;17737;52.586;13.284;2023-04-26T08:05:32;101070.34;;;7.24;61.63
31082;BME280;17737;52.586;13.284;2023-04-26T08:08:01;101070.63;;;7.21;62.48
31082;BME280;17737;52.586;13.284;2023-04-26T08:10:29;101075.84;;;7.32;62.46
31082;BME280;17737;52.586;13.284;2023-04-26T08:12:57;101067.41;;;7.37;61.50
31082;BME280;17737;52.586;13.284;2023-04-26T08:15:30;101079.97;;;7.46;60.76
31082;BME280;17737;52.586;13.284;2023-04-26T08:17:58;101071.63;;;7.49;60.51
31082;BME280;17737;52.586;13.284;2023-04-26T08:20:26;101069.94;;;7.48;59.90
31082;BME280;17737;52.586;13.284;2023-04-26T08:22:54;101073.31;;;7.79;59.14
31082;BME280;17737;52.586;13.284;2023-04-26T08:25:23;101074.88;;;7.91;58.43
31082;BME280;17737;52.586;13.284;2023-04-26T08:27:52;101075.50;;;8.21;57.07
31082;BME280;17737;52.586;13.284;2023-04-26T08:30:20;101077.94;;;8.05;55.80
31082;BME280;17737;52.586;13.284;2023-04-26T08:32:50;101073.47;;;7.77;56.25
31082;BME280;17737;52.586;13.284;2023-04-26T08:35:18;101077.84;;;7.69;57.99
31082;BME280;17737;52.586;13.284;2023-04-26T08:37:46;101085.34;;;7.56;58.71
31082;BME280;17737;52.586;13.284;2023-04-26T08:40:22;101082.06;;;7.33;58.29
31082;BME280;17737;52.586;13.284;2023-04-26T08:42:51;101081.94;;;7.73;57.08
31082;BME280;17737;52.586;13.284;2023-04-26T08:45:20;101080.25;;;7.62;57.88
31082;BME280;17737;52.586;13.284;2023-04-26T08:47:51;101086.72;;;7.88;57.25
31082;BME280;17737;52.586;13.284;2023-04-26T08:50:22;101085.03;;;7.68;57.76
31082;BME280;17737;52.586;13.284;2023-04-26T08:52:51;101081.94;;;7.73;58.26
31082;BME280;17737;52.586;13.284;2023-04-26T08:55:19;101081.78;;;7.93;57.03
31082;BME280;17737;52.586;13.284;2023-04-26T08:57:48;101086.03;;;7.67;56.05
31082;BME280;17737;52.586;13.284;2023-04-26T09:00:18;101095.75;;;7.49;57.22
31082;BME280;17737;52.586;13.284;2023-04-26T09:02:47;101093.78;;;7.32;57.92
31082;BME280;17737;52.586;13.284;2023-04-26T09:05:19;101094.66;;;7.42;58.63
31082;BME280;17737;52.586;13.284;2023-04-26T09:07:53;101088.44;;;7.42;59.09
31082;BME280;17737;52.586;13.284;2023-04-26T09:10:24;101093.53;;;7.64;57.86
31082;BME280;17737;52.586;13.284;2023-04-26T09:12:54;101100.56;;;7.84;56.65
31082;BME280;17737;52.586;13.284;2023-04-26T09:15:23;101096.59;;;7.97;56.19
31082;BME280;17737;52.586;13.284;2023-04-26T09:17:54;101085.56;;;8.00;55.45
31082;BME280;17737;52.586;13.284;2023-04-26T09:20:24;101087.00;;;8.23;55.35
31082;BME280;17737;52.586;13.284;2023-04-26T09:23:02;101081.03;;;8.10;55.63
31082;BME280;17737;52.586;13.284;2023-04-26T09:25:31;101088.56;;;7.69;56.26
31082;BME280;17737;52.586;13.284;2023-04-26T09:28:00;101087.00;;;7.85;55.91
31082;BME280;17737;52.586;13.284;2023-04-26T09:30:29;101092.66;;;8.01;55.63
31082;BME280;17737;52.586;13.284;2023-04-26T09:33:00;101089.09;;;8.20;54.91
31082;BME280;17737;52.586;13.284;2023-04-26T09:35:31;101087.81;;;8.14;55.73
31082;BME280;17737;52.586;13.284;2023-04-26T09:38:02;101091.50;;;8.13;55.59
31082;BME280;17737;52.586;13.284;2023-04-26T09:40:39;101085.06;;;8.53;54.97
31082;BME280;17737;52.586;13.284;2023-04-26T09:43:09;101083.66;;;8.48;54.81
31082;BME280;17737;52.586;13.284;2023-04-26T09:45:45;101087.31;;;8.84;54.24
31082;BME280;17737;52.586;13.284;2023-04-26T09:48:21;101093.63;;;8.66;53.74
31082;BME280;17737;52.586;13.284;2023-04-26T09:50:52;101088.72;;;8.52;53.45
31082;BME280;17737;52.586;13.284;2023-04-26T09:53:27;101086.41;;;8.29;52.42
31082;BME280;17737;52.586;13.284;2023-04-26T09:55:57;101083.28;;;8.34;52.64
31082;BME280;17737;52.586;13.284;2023-04-26T09:58:35;101095.31;;;8.20;51.71
31082;BME280;17737;52.586;13.284;2023-04-26T10:01:04;101092.88;;;8.17;51.87
31082;BME280;17737;52.586;13.284;2023-04-26T10:03:35;101087.81;;;8.33;51.27
31082;BME280;17737;52.586;13.284;2023-04-26T10:06:04;101095.25;;;8.39;51.82
31082;BME280;17737;52.586;13.284;2023-04-26T10:08:34;101083.50;;;8.60;52.61
31082;BME280;17737;52.586;13.284;2023-04-26T10:11:04;101098.53;;;8.80;51.69
31082;BME280;17737;52.586;13.284;2023-04-26T10:13:34;101090.19;;;8.46;52.63
31082;BME280;17737;52.586;13.284;2023-04-26T10:16:02;101091.50;;;8.32;51.12
31082;BME280;17737;52.586;13.284;2023-04-26T10:18:32;101100.22;;;8.44;50.87
31082;BME280;17737;52.586;13.284;2023-04-26T10:21:06;101095.09;;;8.51;51.95
31082;BME280;17737;52.586;13.284;2023-04-26T10:23:37;101104.78;;;8.34;53.32
31082;BME280;17737;52.586;13.284;2023-04-26T10:26:45;101094.72;;;8.36;53.09
31082;BME280;17737;52.586;13.284;2023-04-26T10:29:14;101103.47;;;8.19;53.45
31082;BME280;17737;52.586;13.284;2023-04-26T10:32:05;101106.63;;;8.24;53.88
31082;BME280;17737;52.586;13.284;2023-04-26T10:34:36;101105.59;;;8.44;53.41
31082;BME280;17737;52.586;13.284;2023-04-26T10:37:08;101095.84;;;8.80;53.21
31082;BME280;17737;52.586;13.284;2023-04-26T10:39:37;101095.03;;;8.97;52.39
31082;BME280;17737;52.586;13.284;2023-04-26T10:42:19;101093.19;;;8.97;51.75
31082;BME280;17737;52.586;13.284;2023-04-26T10:44:53;101089.28;;;8.92;52.43
31082;BME280;17737;52.586;13.284;2023-04-26T10:47:25;101088.19;;;9.29;51.64
31082;BME280;17737;52.586;13.284;2023-04-26T10:50:05;101098.69;;;9.23;51.04
31082;BME280;17737;52.586;13.284;2023-04-26T10:52:35;101090.22;;;8.64;53.66
31082;BME280;17737;52.586;13.284;2023-04-26T10:55:05;101100.25;;;8.25;53.60
31082;BME280;17737;52.586;13.284;2023-04-26T10:57:48;101110.56;;;8.29;53.03
31082;BME280;17737;52.586;13.284;2023-04-26T11:00:25;101102.09;;;8.71;52.41
31082;BME280;17737;52.586;13.284;2023-04-26T11:03:02;101100.56;;;8.68;51.77
31082;BME280;17737;52.586;13.284;2023-04-26T11:05:38;101095.44;;;9.02;49.38
31082;BME280;17737;52.586;13.284;2023-04-26T11:08:15;101095.84;;;9.07;49.19
31082;BME280;17737;52.586;13.284;2023-04-26T11:10:49;101094.41;;;8.85;49.78
31082;BME280;17737;52.586;13.284;2023-04-26T11:13:19;101109.69;;;8.75;48.35
31082;BME280;17737;52.586;13.284;2023-04-26T11:15:51;101097.00;;;9.22;48.64
31082;BME280;17737;52.586;13.284;2023-04-26T11:18:21;101090.66;;;10.11;47.04
31082;BME280;17737;52.586;13.284;2023-04-26T11:20:50;101087.19;;;9.83;46.51
31082;BME280;17737;52.586;13.284;2023-04-26T11:23:18;101092.03;;;9.62;46.95
31082;BME280;17737;52.586;13.284;2023-04-26T11:25:47;101093.72;;;9.28;47.27
31082;BME280;17737;52.586;13.284;2023-04-26T11:28:15;101088.66;;;9.42;46.78
31082;BME280;17737;52.586;13.284;2023-04-26T11:30:45;101085.63;;;9.28;46.73
31082;BME280;17737;52.586;13.284;2023-04-26T11:33:16;101097.25;;;9.28;47.34
31082;BME280;17737;52.586;13.284;2023-04-26T11:35:46;101103.94;;;9.42;46.17
31082;BME280;17737;52.586;13.284;2023-04-26T11:38:16;101096.31;;;8.93;46.17
31082;BME280;17737;52.586;13.284;2023-04-26T11:40:52;101099.50;;;9.06;45.76
31082;BME280;17737;52.586;13.284;2023-04-26T11:43:21;101094.19;;;9.58;44.94
31082;BME280;17737;52.586;13.284;2023-04-26T11:45:57;101096.81;;;9.68;44.61
31082;BME280;17737;52.586;13.284;2023-04-26T11:48:27;101096.59;;;9.44;45.18
31082;BME280;17737;52.586;13.284;2023-04-26T11:50:56;101087.91;;;9.50;45.36
31082;BME280;17737;52.586;13.284;2023-04-26T11:53:35;101099.00;;;9.20;46.12
31082;BME280;17737;52.586;13.284;2023-04-26T11:56:12;101097.75;;;9.77;45.61
31082;BME280;17737;52.586;13.284;2023-04-26T11:58:44;101089.66;;;9.77;45.75
31082;BME280;17737;52.586;13.284;2023-04-26T12:01:19;101096.19;;;9.92;46.28
31082;BME280;17737;52.586;13.284;2023-04-26T12:03:49;101105.28;;;9.38;48.08
31082;BME280;17737;52.586;13.284;2023-04-26T12:06:19;101109.19;;;9.61;47.32
31082;BME280;17737;52.586;13.284;2023-04-26T12:08:55;101103.03;;;9.51;47.84
31082;BME280;17737;52.586;13.284;2023-04-26T12:11:23;101115.75;;;9.14;48.08
31082;BME280;17737;52.586;13.284;2023-04-26T12:13:51;101108.81;;;9.11;48.18
31082;BME280;17737;52.586;13.284;2023-04-26T12:16:21;101106.09;;;8.94;48.58
31082;BME280;17737;52.586;13.284;2023-04-26T12:18:53;101106.94;;;8.94;48.63
31082;BME280;17737;52.586;13.284;2023-04-26T12:21:22;101111.03;;;8.98;49.12
31082;BME280;17737;52.586;13.284;2023-04-26T12:23:55;101104.59;;;9.09;49.39
31082;BME280;17737;52.586;13.284;2023-04-26T12:26:40;101114.97;;;8.94;50.00
31082;BME280;17737;52.586;13.284;2023-04-26T12:29:10;101110.88;;;9.00;49.50
31082;BME280;17737;52.586;13.284;2023-04-26T12:31:38;101109.28;;;9.51;49.13
31082;BME280;17737;52.586;13.284;2023-04-26T12:34:07;101117.25;;;10.14;47.64
31082;BME280;17737;52.586;13.284;2023-04-26T12:36:35;101108.56;;;10.45;47.31
31082;BME280;17737;52.586;13.284;2023-04-26T12:39:04;101108.88;;;10.68;46.33
31082;BME280;17737;52.586;13.284;2023-04-26T12:41:32;101105.03;;;10.70;45.34
31082;BME280;17737;52.586;13.284;2023-04-26T12:44:00;101101.75;;;10.59;44.95
31082;BME280;17737;52.586;13.284;2023-04-26T12:46:28;101099.97;;;10.42;45.00
31082;BME280;17737;52.586;13.284;2023-04-26T12:48:57;101108.50;;;10.63;45.18
31082;BME280;17737;52.586;13.284;2023-04-26T12:51:25;101101.25;;;9.95;46.05
31082;BME280;17737;52.586;13.284;2023-04-26T12:53:53;101102.97;;;9.78;45.92
31082;BME280;17737;52.586;13.284;2023-04-26T12:56:22;101100.09;;;10.15;45.90
31082;BME280;17737;52.586;13.284;2023-04-26T12:58:51;101106.25;;;9.90;45.53
31082;BME280;17737;52.586;13.284;2023-04-26T13:01:19;101099.22;;;10.32;44.82